sensor_id;sensor_type;location;lat;lon;timestamp;temperature;humidity
44063;DHT22;29727;47.606;19.130;2023-07-13T00:00:33;25.60;73.80
44063;DHT22;29727;47.606;19.130;2023-07-13T00:02:59;25.50;74.10
44063;DHT22;29727;47.606;19.130;2023-07-13T00:05:25;25.50;75.00
44063;DHT22;29727;47.606;19.130;2023-07-13T00:07:51;25.50;73.00
44063;DHT22;29727;47.606;19.130;2023-07-13T00:10:17;25.50;73.50
44063;DHT22;29727;47.606;19.130;2023-07-13T00:12:44;25.50;73.10
44063;DHT22;29727;47.606;19.130;2023-07-13T00:15:19;25.50;73.10
44063;DHT22;29727;47.606;19.130;2023-07-13T00:17:49;25.40;73.20
44063;DHT22;29727;47.606;19.130;2023-07-13T00:20:15;25.30;72.90
44063;DHT22;29727;47.606;19.130;2023-07-13T00:22:41;25.20;73.90
44063;DHT22;29727;47.606;19.130;2023-07-13T00:25:08;25.20;74.80
44063;DHT22;29727;47.606;19.130;2023-07-13T00:27:34;25.20;75.70
44063;DHT22;29727;47.606;19.130;2023-07-13T00:30:00;25.20;75.70
44063;DHT22;29727;47.606;19.130;2023-07-13T00:32:25;25.20;76.40
44063;DHT22;29727;47.606;19.130;2023-07-13T00:34:52;25.10;77.10
44063;DHT22;29727;47.606;19.130;2023-07-13T00:37:17;25.20;77.00
44063;DHT22;29727;47.606;19.130;2023-07-13T00:39:43;25.20;77.60
44063;DHT22;29727;47.606;19.130;2023-07-13T00:42:09;25.10;77.60
44063;DHT22;29727;47.606;19.130;2023-07-13T00:44:35;25.10;77.40
44063;DHT22;29727;47.606;19.130;2023-07-13T00:47:01;25.10;77.20
44063;DHT22;29727;47.606;19.130;2023-07-13T00:49:30;25.10;77.20
44063;DHT22;29727;47.606;19.130;2023-07-13T00:54:25;25.10;77.30
44063;DHT22;29727;47.606;19.130;2023-07-13T00:56:53;25.10;77.00
44063;DHT22;29727;47.606;19.130;2023-07-13T00:59:21;25.10;77.60
44063;DHT22;29727;47.606;19.130;2023-07-13T01:01:48;25.10;77.60
44063;DHT22;29727;47.606;19.130;2023-07-13T01:04:14;25.10;77.60
44063;DHT22;29727;47.606;19.130;2023-07-13T01:06:41;25.00;76.90
44063;DHT22;29727;47.606;19.130;2023-07-13T01:09:10;24.80;77.20
44063;DHT22;29727;47.606;19.130;2023-07-13T01:11:36;24.80;78.40
44063;DHT22;29727;47.606;19.130;2023-07-13T01:14:02;24.70;78.70
44063;DHT22;29727;47.606;19.130;2023-07-13T01:16:31;24.70;78.80
44063;DHT22;29727;47.606;19.130;2023-07-13T01:18:57;24.70;79.00
44063;DHT22;29727;47.606;19.130;2023-07-13T01:21:28;24.70;78.60
44063;DHT22;29727;47.606;19.130;2023-07-13T01:23:54;24.70;78.90
44063;DHT22;29727;47.606;19.130;2023-07-13T01:26:20;24.80;78.90
44063;DHT22;29727;47.606;19.130;2023-07-13T01:28:46;24.80;78.90
44063;DHT22;29727;47.606;19.130;2023-07-13T01:31:12;24.80;78.70
44063;DHT22;29727;47.606;19.130;2023-07-13T01:33:41;24.80;78.20
44063;DHT22;29727;47.606;19.130;2023-07-13T01:36:07;24.80;77.00
44063;DHT22;29727;47.606;19.130;2023-07-13T01:38:34;24.80;77.60
44063;DHT22;29727;47.606;19.130;2023-07-13T01:41:00;24.80;77.60
44063;DHT22;29727;47.606;19.130;2023-07-13T01:43:26;24.80;77.50
44063;DHT22;29727;47.606;19.130;2023-07-13T01:45:52;24.80;77.60
44063;DHT22;29727;47.606;19.130;2023-07-13T01:48:18;24.80;77.40
44063;DHT22;29727;47.606;19.130;2023-07-13T01:50:43;24.80;77.00
44063;DHT22;29727;47.606;19.130;2023-07-13T02:06:08;25.30;77.70
44063;DHT22;29727;47.606;19.130;2023-07-13T02:08:34;24.60;78.70
44063;DHT22;29727;47.606;19.130;2023-07-13T02:11:00;24.50;78.80
44063;DHT22;29727;47.606;19.130;2023-07-13T02:13:25;24.40;79.10
44063;DHT22;29727;47.606;19.130;2023-07-13T02:15:51;24.40;79.30
44063;DHT22;29727;47.606;19.130;2023-07-13T02:18:17;24.40;79.90
44063;DHT22;29727;47.606;19.130;2023-07-13T02:20:43;24.40;79.70
44063;DHT22;29727;47.606;19.130;2023-07-13T02:23:10;24.40;79.70
44063;DHT22;29727;47.606;19.130;2023-07-13T02:25:36;24.30;80.00
44063;DHT22;29727;47.606;19.130;2023-07-13T02:28:01;24.30;80.20
44063;DHT22;29727;47.606;19.130;2023-07-13T02:30:27;24.30;80.60
44063;DHT22;29727;47.606;19.130;2023-07-13T02:32:55;24.20;81.20
44063;DHT22;29727;47.606;19.130;2023-07-13T02:35:21;24.10;81.60
44063;DHT22;29727;47.606;19.130;2023-07-13T02:37:46;24.10;82.10
44063;DHT22;29727;47.606;19.130;2023-07-13T02:40:12;24.00;82.80
44063;DHT22;29727;47.606;19.130;2023-07-13T02:42:38;23.90;82.80
44063;DHT22;29727;47.606;19.130;2023-07-13T02:45:04;23.90;83.30
44063;DHT22;29727;47.606;19.130;2023-07-13T02:47:32;23.80;83.90
44063;DHT22;29727;47.606;19.130;2023-07-13T02:49:57;23.80;84.00
44063;DHT22;29727;47.606;19.130;2023-07-13T02:52:23;23.80;84.00
44063;DHT22;29727;47.606;19.130;2023-07-13T02:54:49;23.70;83.80
44063;DHT22;29727;47.606;19.130;2023-07-13T02:57:15;23.70;83.80
44063;DHT22;29727;47.606;19.130;2023-07-13T02:59:41;23.70;84.30
44063;DHT22;29727;47.606;19.130;2023-07-13T03:02:07;23.70;84.20
44063;DHT22;29727;47.606;19.130;2023-07-13T03:04:32;23.70;83.90
44063;DHT22;29727;47.606;19.130;2023-07-13T03:06:58;23.70;84.00
44063;DHT22;29727;47.606;19.130;2023-07-13T03:09:24;23.80;84.10
44063;DHT22;29727;47.606;19.130;2023-07-13T03:11:54;23.80;83.40
44063;DHT22;29727;47.606;19.130;2023-07-13T03:14:21;23.80;83.90
44063;DHT22;29727;47.606;19.130;2023-07-13T03:16:47;23.80;83.70
44063;DHT22;29727;47.606;19.130;2023-07-13T03:19:13;23.80;83.70
44063;DHT22;29727;47.606;19.130;2023-07-13T03:21:38;23.80;83.80
44063;DHT22;29727;47.606;19.130;2023-07-13T03:24:05;23.90;84.00
44063;DHT22;29727;47.606;19.130;2023-07-13T03:26:30;23.90;84.40
44063;DHT22;29727;47.606;19.130;2023-07-13T03:28:57;23.80;83.90
44063;DHT22;29727;47.606;19.130;2023-07-13T03:31:26;23.80;84.40
44063;DHT22;29727;47.606;19.130;2023-07-13T03:33:54;23.70;84.90
44063;DHT22;29727;47.606;19.130;2023-07-13T03:36:22;23.70;85.90
44063;DHT22;29727;47.606;19.130;2023-07-13T03:38:51;23.60;85.60
44063;DHT22;29727;47.606;19.130;2023-07-13T03:41:18;23.60;85.80
44063;DHT22;29727;47.606;19.130;2023-07-13T03:43:44;23.70;85.80
44063;DHT22;29727;47.606;19.130;2023-07-13T03:46:10;23.70;85.60
44063;DHT22;29727;47.606;19.130;2023-07-13T03:48:36;23.70;85.80
44063;DHT22;29727;47.606;19.130;2023-07-13T03:51:02;23.70;85.90
44063;DHT22;29727;47.606;19.130;2023-07-13T03:53:27;23.70;85.40
44063;DHT22;29727;47.606;19.130;2023-07-13T03:55:53;23.70;84.10
44063;DHT22;29727;47.606;19.130;2023-07-13T03:58:29;23.70;85.00
44063;DHT22;29727;47.606;19.130;2023-07-13T04:00:56;23.70;85.90
44063;DHT22;29727;47.606;19.130;2023-07-13T04:03:22;23.80;86.10
44063;DHT22;29727;47.606;19.130;2023-07-13T04:05:48;23.80;86.30
44063;DHT22;29727;47.606;19.130;2023-07-13T04:08:15;23.90;84.80
44063;DHT22;29727;47.606;19.130;2023-07-13T04:10:40;23.90;85.20
44063;DHT22;29727;47.606;19.130;2023-07-13T04:15:34;24.00;83.50
44063;DHT22;29727;47.606;19.130;2023-07-13T04:18:00;24.00;84.50
44063;DHT22;29727;47.606;19.130;2023-07-13T04:20:26;24.00;84.80
44063;DHT22;29727;47.606;19.130;2023-07-13T04:22:52;24.10;84.20
44063;DHT22;29727;47.606;19.130;2023-07-13T04:25:21;24.10;84.60
44063;DHT22;29727;47.606;19.130;2023-07-13T04:27:47;24.20;84.40
44063;DHT22;29727;47.606;19.130;2023-07-13T04:30:13;24.20;84.40
44063;DHT22;29727;47.606;19.130;2023-07-13T04:32:38;24.20;83.70
44063;DHT22;29727;47.606;19.130;2023-07-13T04:35:04;24.30;83.40
44063;DHT22;29727;47.606;19.130;2023-07-13T04:37:30;24.30;83.90
44063;DHT22;29727;47.606;19.130;2023-07-13T04:39:56;24.30;83.40
44063;DHT22;29727;47.606;19.130;2023-07-13T04:42:22;24.30;83.70
44063;DHT22;29727;47.606;19.130;2023-07-13T04:44:49;24.30;83.80
44063;DHT22;29727;47.606;19.130;2023-07-13T04:47:14;24.30;84.10
44063;DHT22;29727;47.606;19.130;2023-07-13T04:49:40;24.30;84.00
44063;DHT22;29727;47.606;19.130;2023-07-13T04:52:06;24.30;83.90
44063;DHT22;29727;47.606;19.130;2023-07-13T04:54:33;24.40;83.00
44063;DHT22;29727;47.606;19.130;2023-07-13T04:56:59;24.40;83.40
44063;DHT22;29727;47.606;19.130;2023-07-13T04:59:25;24.40;83.90
44063;DHT22;29727;47.606;19.130;2023-07-13T05:01:50;24.30;84.40
44063;DHT22;29727;47.606;19.130;2023-07-13T05:04:16;24.30;84.90
44063;DHT22;29727;47.606;19.130;2023-07-13T05:06:42;24.30;83.70
44063;DHT22;29727;47.606;19.130;2023-07-13T05:09:08;24.20;83.10
44063;DHT22;29727;47.606;19.130;2023-07-13T05:11:33;24.10;83.20
44063;DHT22;29727;47.606;19.130;2023-07-13T05:13:59;24.00;83.90
44063;DHT22;29727;47.606;19.130;2023-07-13T05:16:27;23.90;84.50
44063;DHT22;29727;47.606;19.130;2023-07-13T05:18:53;23.90;85.10
44063;DHT22;29727;47.606;19.130;2023-07-13T05:21:19;23.90;85.70
44063;DHT22;29727;47.606;19.130;2023-07-13T05:23:44;23.80;84.70
44063;DHT22;29727;47.606;19.130;2023-07-13T05:26:10;23.70;83.50
44063;DHT22;29727;47.606;19.130;2023-07-13T05:28:36;23.70;83.30
44063;DHT22;29727;47.606;19.130;2023-07-13T05:31:02;23.60;84.70
44063;DHT22;29727;47.606;19.130;2023-07-13T05:33:28;23.50;85.00
44063;DHT22;29727;47.606;19.130;2023-07-13T05:35:54;23.30;84.90
44063;DHT22;29727;47.606;19.130;2023-07-13T05:38:20;23.20;85.80
44063;DHT22;29727;47.606;19.130;2023-07-13T05:40:46;23.00;86.30
44063;DHT22;29727;47.606;19.130;2023-07-13T05:43:13;22.90;87.40
44063;DHT22;29727;47.606;19.130;2023-07-13T05:45:39;22.90;87.10
44063;DHT22;29727;47.606;19.130;2023-07-13T05:48:04;22.80;87.60
44063;DHT22;29727;47.606;19.130;2023-07-13T05:50:30;22.70;87.50
44063;DHT22;29727;47.606;19.130;2023-07-13T05:52:56;22.70;88.10
44063;DHT22;29727;47.606;19.130;2023-07-13T05:55:22;22.50;87.10
44063;DHT22;29727;47.606;19.130;2023-07-13T05:57:48;22.50;88.00
44063;DHT22;29727;47.606;19.130;2023-07-13T06:00:14;22.40;88.30
44063;DHT22;29727;47.606;19.130;2023-07-13T06:02:40;22.20;88.20
44063;DHT22;29727;47.606;19.130;2023-07-13T06:05:05;22.10;88.20
44063;DHT22;29727;47.606;19.130;2023-07-13T06:07:31;22.00;89.10
44063;DHT22;29727;47.606;19.130;2023-07-13T06:09:57;21.90;88.60
44063;DHT22;29727;47.606;19.130;2023-07-13T06:12:25;21.80;89.30
44063;DHT22;29727;47.606;19.130;2023-07-13T06:14:50;21.80;90.10
44063;DHT22;29727;47.606;19.130;2023-07-13T06:17:16;21.70;89.90
44063;DHT22;29727;47.606;19.130;2023-07-13T06:19:41;21.70;90.20
44063;DHT22;29727;47.606;19.130;2023-07-13T06:22:07;21.70;90.10
44063;DHT22;29727;47.606;19.130;2023-07-13T06:24:33;21.70;89.10
44063;DHT22;29727;47.606;19.130;2023-07-13T06:26:58;21.60;90.10
44063;DHT22;29727;47.606;19.130;2023-07-13T06:29:24;21.60;89.90
44063;DHT22;29727;47.606;19.130;2023-07-13T06:31:49;21.60;89.00
44063;DHT22;29727;47.606;19.130;2023-07-13T06:34:15;21.50;89.30
44063;DHT22;29727;47.606;19.130;2023-07-13T06:36:41;21.50;90.00
44063;DHT22;29727;47.606;19.130;2023-07-13T06:39:07;21.50;89.30
44063;DHT22;29727;47.606;19.130;2023-07-13T06:41:32;21.50;89.40
44063;DHT22;29727;47.606;19.130;2023-07-13T06:43:59;21.50;89.10
44063;DHT22;29727;47.606;19.130;2023-07-13T06:46:24;21.50;89.50
44063;DHT22;29727;47.606;19.130;2023-07-13T06:48:50;21.50;89.20
44063;DHT22;29727;47.606;19.130;2023-07-13T06:51:16;21.50;89.50
44063;DHT22;29727;47.606;19.130;2023-07-13T06:53:42;21.60;88.90
44063;DHT22;29727;47.606;19.130;2023-07-13T06:56:09;21.60;89.50
44063;DHT22;29727;47.606;19.130;2023-07-13T06:58:36;21.70;88.70
44063;DHT22;29727;47.606;19.130;2023-07-13T07:01:02;21.70;88.70
44063;DHT22;29727;47.606;19.130;2023-07-13T07:03:27;21.80;89.60
44063;DHT22;29727;47.606;19.130;2023-07-13T07:05:53;21.80;88.90
44063;DHT22;29727;47.606;19.130;2023-07-13T07:08:19;21.80;90.10
44063;DHT22;29727;47.606;19.130;2023-07-13T07:10:44;22.00;89.90
44063;DHT22;29727;47.606;19.130;2023-07-13T07:13:11;22.00;90.00
44063;DHT22;29727;47.606;19.130;2023-07-13T07:15:36;22.10;90.20
44063;DHT22;29727;47.606;19.130;2023-07-13T07:18:02;22.20;90.10
44063;DHT22;29727;47.606;19.130;2023-07-13T07:20:28;22.30;90.40
44063;DHT22;29727;47.606;19.130;2023-07-13T07:22:56;22.40;90.50
44063;DHT22;29727;47.606;19.130;2023-07-13T07:25:21;22.50;88.00
44063;DHT22;29727;47.606;19.130;2023-07-13T07:27:47;22.50;89.20
44063;DHT22;29727;47.606;19.130;2023-07-13T07:30:13;22.50;89.80
44063;DHT22;29727;47.606;19.130;2023-07-13T07:32:39;22.60;89.50
44063;DHT22;29727;47.606;19.130;2023-07-13T07:35:05;22.80;89.10
44063;DHT22;29727;47.606;19.130;2023-07-13T07:37:30;22.90;90.80
44063;DHT22;29727;47.606;19.130;2023-07-13T07:39:56;23.10;88.80
44063;DHT22;29727;47.606;19.130;2023-07-13T07:42:22;23.20;87.60
44063;DHT22;29727;47.606;19.130;2023-07-13T07:44:47;23.30;85.80
44063;DHT22;29727;47.606;19.130;2023-07-13T07:47:13;23.40;84.70
44063;DHT22;29727;47.606;19.130;2023-07-13T07:49:39;23.50;84.10
44063;DHT22;29727;47.606;19.130;2023-07-13T07:52:05;23.50;85.30
44063;DHT22;29727;47.606;19.130;2023-07-13T07:54:30;23.60;83.10
44063;DHT22;29727;47.606;19.130;2023-07-13T07:56:56;23.60;84.80
44063;DHT22;29727;47.606;19.130;2023-07-13T07:59:22;23.80;82.90
44063;DHT22;29727;47.606;19.130;2023-07-13T08:01:47;23.80;83.60
44063;DHT22;29727;47.606;19.130;2023-07-13T08:04:16;23.80;81.40
44063;DHT22;29727;47.606;19.130;2023-07-13T08:06:41;23.90;80.80
44063;DHT22;29727;47.606;19.130;2023-07-13T08:09:07;24.00;81.60
44063;DHT22;29727;47.606;19.130;2023-07-13T08:11:33;24.00;79.60
44063;DHT22;29727;47.606;19.130;2023-07-13T08:13:59;24.10;81.20
44063;DHT22;29727;47.606;19.130;2023-07-13T08:16:26;24.20;79.30
44063;DHT22;29727;47.606;19.130;2023-07-13T08:18:51;24.30;79.80
44063;DHT22;29727;47.606;19.130;2023-07-13T08:21:17;24.50;77.50
44063;DHT22;29727;47.606;19.130;2023-07-13T08:23:45;24.50;78.00
44063;DHT22;29727;47.606;19.130;2023-07-13T08:26:11;24.60;77.90
44063;DHT22;29727;47.606;19.130;2023-07-13T08:28:37;24.70;79.10
44063;DHT22;29727;47.606;19.130;2023-07-13T08:31:03;24.80;78.50
44063;DHT22;29727;47.606;19.130;2023-07-13T08:33:30;24.90;78.80
44063;DHT22;29727;47.606;19.130;2023-07-13T08:35:55;25.10;77.20
44063;DHT22;29727;47.606;19.130;2023-07-13T08:38:22;25.30;78.10
44063;DHT22;29727;47.606;19.130;2023-07-13T08:40:54;25.40;75.90
44063;DHT22;29727;47.606;19.130;2023-07-13T08:43:35;25.50;74.30
44063;DHT22;29727;47.606;19.130;2023-07-13T08:48:58;25.80;73.10
44063;DHT22;29727;47.606;19.130;2023-07-13T08:54:03;26.00;71.00
44063;DHT22;29727;47.606;19.130;2023-07-13T08:56:30;26.00;72.00
44063;DHT22;29727;47.606;19.130;2023-07-13T08:59:24;26.00;71.90
44063;DHT22;29727;47.606;19.130;2023-07-13T09:05:02;26.20;70.60
44063;DHT22;29727;47.606;19.130;2023-07-13T09:10:28;26.50;71.70
44063;DHT22;29727;47.606;19.130;2023-07-13T09:15:52;26.60;70.60
44063;DHT22;29727;47.606;19.130;2023-07-13T09:18:23;26.70;70.70
44063;DHT22;29727;47.606;19.130;2023-07-13T09:21:13;26.80;69.50
44063;DHT22;29727;47.606;19.130;2023-07-13T09:23:36;26.90;68.40
44063;DHT22;29727;47.606;19.130;2023-07-13T09:26:27;27.00;68.40
44063;DHT22;29727;47.606;19.130;2023-07-13T09:28:57;27.20;69.20
44063;DHT22;29727;47.606;19.130;2023-07-13T09:31:38;27.20;69.40
44063;DHT22;29727;47.606;19.130;2023-07-13T09:34:10;27.20;68.40
44063;DHT22;29727;47.606;19.130;2023-07-13T09:36:36;27.30;68.00
44063;DHT22;29727;47.606;19.130;2023-07-13T09:44:33;27.50;67.30
44063;DHT22;29727;47.606;19.130;2023-07-13T09:46:59;27.60;67.30
44063;DHT22;29727;47.606;19.130;2023-07-13T09:49:33;27.70;66.10
44063;DHT22;29727;47.606;19.130;2023-07-13T09:52:00;27.80;66.50
44063;DHT22;29727;47.606;19.130;2023-07-13T09:54:27;27.80;65.80
44063;DHT22;29727;47.606;19.130;2023-07-13T09:57:00;27.80;66.20
44063;DHT22;29727;47.606;19.130;2023-07-13T09:59:32;27.80;66.60
44063;DHT22;29727;47.606;19.130;2023-07-13T10:01:58;27.80;66.00
44063;DHT22;29727;47.606;19.130;2023-07-13T10:04:32;27.80;66.30
44063;DHT22;29727;47.606;19.130;2023-07-13T10:07:09;27.80;64.20
44063;DHT22;29727;47.606;19.130;2023-07-13T10:09:38;27.80;64.80
44063;DHT22;29727;47.606;19.130;2023-07-13T10:12:13;27.70;65.00
44063;DHT22;29727;47.606;19.130;2023-07-13T10:14:40;27.70;65.60
44063;DHT22;29727;47.606;19.130;2023-07-13T10:17:12;27.70;66.00
44063;DHT22;29727;47.606;19.130;2023-07-13T10:19:38;27.70;66.00
44063;DHT22;29727;47.606;19.130;2023-07-13T10:22:27;27.80;64.10
44063;DHT22;29727;47.606;19.130;2023-07-13T10:24:55;28.00;64.70
44063;DHT22;29727;47.606;19.130;2023-07-13T10:27:32;28.00;64.20
44063;DHT22;29727;47.606;19.130;2023-07-13T10:30:02;28.10;64.70
44063;DHT22;29727;47.606;19.130;2023-07-13T10:32:34;28.10;64.60
44063;DHT22;29727;47.606;19.130;2023-07-13T10:34:59;28.20;64.10
44063;DHT22;29727;47.606;19.130;2023-07-13T10:37:33;28.30;63.90
44063;DHT22;29727;47.606;19.130;2023-07-13T10:40:03;28.30;63.90
44063;DHT22;29727;47.606;19.130;2023-07-13T10:42:37;28.40;63.20
44063;DHT22;29727;47.606;19.130;2023-07-13T10:45:37;28.50;63.80
44063;DHT22;29727;47.606;19.130;2023-07-13T10:48:04;28.70;62.30
44063;DHT22;29727;47.606;19.130;2023-07-13T10:50:31;28.70;61.40
44063;DHT22;29727;47.606;19.130;2023-07-13T10:53:36;28.90;61.20
44063;DHT22;29727;47.606;19.130;2023-07-13T10:56:04;28.90;60.90
44063;DHT22;29727;47.606;19.130;2023-07-13T10:58:41;29.00;60.30
44063;DHT22;29727;47.606;19.130;2023-07-13T11:01:09;29.10;59.70
44063;DHT22;29727;47.606;19.130;2023-07-13T11:03:53;29.20;59.60
44063;DHT22;29727;47.606;19.130;2023-07-13T11:08:58;29.10;59.40
44063;DHT22;29727;47.606;19.130;2023-07-13T11:18:51;29.20;60.90
44063;DHT22;29727;47.606;19.130;2023-07-13T11:21:22;29.30;60.80
44063;DHT22;29727;47.606;19.130;2023-07-13T11:24:13;29.40;61.10
44063;DHT22;29727;47.606;19.130;2023-07-13T11:26:59;29.50;58.50
44063;DHT22;29727;47.606;19.130;2023-07-13T11:29:40;29.60;57.40
44063;DHT22;29727;47.606;19.130;2023-07-13T11:32:25;29.70;57.90
44063;DHT22;29727;47.606;19.130;2023-07-13T11:34:55;29.80;57.20
44063;DHT22;29727;47.606;19.130;2023-07-13T11:37:21;29.90;57.90
44063;DHT22;29727;47.606;19.130;2023-07-13T11:39:50;30.00;60.00
44063;DHT22;29727;47.606;19.130;2023-07-13T11:42:18;30.20;57.50
44063;DHT22;29727;47.606;19.130;2023-07-13T11:44:48;30.30;58.80
44063;DHT22;29727;47.606;19.130;2023-07-13T11:47:19;30.50;57.60
44063;DHT22;29727;47.606;19.130;2023-07-13T11:49:51;30.70;57.50
44063;DHT22;29727;47.606;19.130;2023-07-13T11:52:21;31.00;55.90
44063;DHT22;29727;47.606;19.130;2023-07-13T11:54:50;30.90;55.90
44063;DHT22;29727;47.606;19.130;2023-07-13T11:57:28;31.00;54.00
44063;DHT22;29727;47.606;19.130;2023-07-13T11:59:55;31.00;54.80
44063;DHT22;29727;47.606;19.130;2023-07-13T12:02:33;31.00;55.80
44063;DHT22;29727;47.606;19.130;2023-07-13T12:05:02;31.10;53.70
44063;DHT22;29727;47.606;19.130;2023-07-13T12:07:31;31.00;52.90
44063;DHT22;29727;47.606;19.130;2023-07-13T12:10:02;30.90;54.00
44063;DHT22;29727;47.606;19.130;2023-07-13T12:12:29;30.80;54.70
44063;DHT22;29727;47.606;19.130;2023-07-13T12:14:56;30.80;54.70
44063;DHT22;29727;47.606;19.130;2023-07-13T12:17:23;30.80;53.80
44063;DHT22;29727;47.606;19.130;2023-07-13T12:19:50;30.80;54.10
44063;DHT22;29727;47.606;19.130;2023-07-13T12:22:17;30.70;53.40
44063;DHT22;29727;47.606;19.130;2023-07-13T12:24:44;30.70;54.50
44063;DHT22;29727;47.606;19.130;2023-07-13T12:27:22;30.80;54.60
44063;DHT22;29727;47.606;19.130;2023-07-13T12:29:52;30.90;54.00
44063;DHT22;29727;47.606;19.130;2023-07-13T12:32:19;30.90;54.40
44063;DHT22;29727;47.606;19.130;2023-07-13T12:34:56;31.00;53.40
44063;DHT22;29727;47.606;19.130;2023-07-13T12:37:23;31.10;53.90
44063;DHT22;29727;47.606;19.130;2023-07-13T12:39:49;31.20;52.90
44063;DHT22;29727;47.606;19.130;2023-07-13T12:42:25;31.20;52.30
44063;DHT22;29727;47.606;19.130;2023-07-13T12:47:25;31.10;52.80
44063;DHT22;29727;47.606;19.130;2023-07-13T12:49:56;31.10;52.70
44063;DHT22;29727;47.606;19.130;2023-07-13T12:52:33;31.00;52.30
44063;DHT22;29727;47.606;19.130;2023-07-13T12:55:11;30.90;52.80
44063;DHT22;29727;47.606;19.130;2023-07-13T12:57:49;30.90;53.00
44063;DHT22;29727;47.606;19.130;2023-07-13T13:00:25;30.90;53.90
44063;DHT22;29727;47.606;19.130;2023-07-13T13:02:54;30.90;53.70
44063;DHT22;29727;47.606;19.130;2023-07-13T13:05:21;31.00;54.90
44063;DHT22;29727;47.606;19.130;2023-07-13T13:07:49;31.10;52.40
44063;DHT22;29727;47.606;19.130;2023-07-13T13:10:15;31.20;53.60
44063;DHT22;29727;47.606;19.130;2023-07-13T13:12:41;31.30;54.00
44063;DHT22;29727;47.606;19.130;2023-07-13T13:15:10;31.50;53.20
44063;DHT22;29727;47.606;19.130;2023-07-13T13:17:37;31.50;53.70
44063;DHT22;29727;47.606;19.130;2023-07-13T13:20:18;31.60;52.50
44063;DHT22;29727;47.606;19.130;2023-07-13T13:22:44;31.70;51.90
44063;DHT22;29727;47.606;19.130;2023-07-13T13:25:13;31.80;52.20
44063;DHT22;29727;47.606;19.130;2023-07-13T13:27:43;31.80;51.10
44063;DHT22;29727;47.606;19.130;2023-07-13T13:30:14;31.70;51.50
44063;DHT22;29727;47.606;19.130;2023-07-13T13:32:42;31.60;51.90
44063;DHT22;29727;47.606;19.130;2023-07-13T13:35:16;31.60;52.60
44063;DHT22;29727;47.606;19.130;2023-07-13T13:37:43;31.50;52.40
44063;DHT22;29727;47.606;19.130;2023-07-13T13:40:27;31.50;51.60
44063;DHT22;29727;47.606;19.130;2023-07-13T13:42:53;31.40;51.90
44063;DHT22;29727;47.606;19.130;2023-07-13T13:45:20;31.20;51.60
44063;DHT22;29727;47.606;19.130;2023-07-13T13:47:46;31.10;53.10
44063;DHT22;29727;47.606;19.130;2023-07-13T13:50:19;31.00;52.30
44063;DHT22;29727;47.606;19.130;2023-07-13T13:52:46;31.00;53.20
44063;DHT22;29727;47.606;19.130;2023-07-13T13:55:16;31.10;53.70
44063;DHT22;29727;47.606;19.130;2023-07-13T13:57:47;31.10;52.60
44063;DHT22;29727;47.606;19.130;2023-07-13T14:00:15;31.10;52.90
44063;DHT22;29727;47.606;19.130;2023-07-13T14:02:45;31.20;52.70
44063;DHT22;29727;47.606;19.130;2023-07-13T14:05:20;31.20;53.10
44063;DHT22;29727;47.606;19.130;2023-07-13T14:07:46;31.10;52.20
44063;DHT22;29727;47.606;19.130;2023-07-13T14:10:15;31.10;52.10
44063;DHT22;29727;47.606;19.130;2023-07-13T14:12:47;31.00;52.80
44063;DHT22;29727;47.606;19.130;2023-07-13T14:15:24;30.80;53.00
44063;DHT22;29727;47.606;19.130;2023-07-13T14:17:50;30.70;52.20
44063;DHT22;29727;47.606;19.130;2023-07-13T14:20:18;30.60;53.50
44063;DHT22;29727;47.606;19.130;2023-07-13T14:22:44;30.50;53.70
44063;DHT22;29727;47.606;19.130;2023-07-13T14:25:15;30.40;55.10
44063;DHT22;29727;47.606;19.130;2023-07-13T14:27:41;30.40;53.70
44063;DHT22;29727;47.606;19.130;2023-07-13T14:30:14;30.30;54.00
44063;DHT22;29727;47.606;19.130;2023-07-13T14:32:40;30.30;54.60
44063;DHT22;29727;47.606;19.130;2023-07-13T14:35:18;30.30;55.70
44063;DHT22;29727;47.606;19.130;2023-07-13T14:37:44;30.30;55.30
44063;DHT22;29727;47.606;19.130;2023-07-13T14:40:31;30.30;55.50
44063;DHT22;29727;47.606;19.130;2023-07-13T14:42:57;30.40;54.10
44063;DHT22;29727;47.606;19.130;2023-07-13T14:45:23;30.40;53.90
44063;DHT22;29727;47.606;19.130;2023-07-13T14:47:50;30.40;54.80
44063;DHT22;29727;47.606;19.130;2023-07-13T14:50:22;30.40;54.70
44063;DHT22;29727;47.606;19.130;2023-07-13T14:52:49;30.40;53.60
44063;DHT22;29727;47.606;19.130;2023-07-13T14:55:17;30.30;54.70
44063;DHT22;29727;47.606;19.130;2023-07-13T14:57:45;30.30;54.10
44063;DHT22;29727;47.606;19.130;2023-07-13T15:00:21;30.30;54.70
44063;DHT22;29727;47.606;19.130;2023-07-13T15:02:51;30.30;55.50
44063;DHT22;29727;47.606;19.130;2023-07-13T15:05:21;30.30;53.40
44063;DHT22;29727;47.606;19.130;2023-07-13T15:07:49;30.30;54.00
44063;DHT22;29727;47.606;19.130;2023-07-13T15:12:43;30.40;53.70
44063;DHT22;29727;47.606;19.130;2023-07-13T15:15:09;30.40;54.00
44063;DHT22;29727;47.606;19.130;2023-07-13T15:20:26;30.40;53.80
44063;DHT22;29727;47.606;19.130;2023-07-13T15:22:53;30.40;54.00
44063;DHT22;29727;47.606;19.130;2023-07-13T15:25:22;30.40;53.60
44063;DHT22;29727;47.606;19.130;2023-07-13T15:27:50;30.40;55.00
44063;DHT22;29727;47.606;19.130;2023-07-13T15:30:16;30.40;54.20
44063;DHT22;29727;47.606;19.130;2023-07-13T15:32:42;30.40;53.60
44063;DHT22;29727;47.606;19.130;2023-07-13T15:35:16;30.30;53.60
44063;DHT22;29727;47.606;19.130;2023-07-13T15:37:42;30.30;54.10
44063;DHT22;29727;47.606;19.130;2023-07-13T15:40:10;30.30;54.40
44063;DHT22;29727;47.606;19.130;2023-07-13T15:42:36;30.30;54.50
44063;DHT22;29727;47.606;19.130;2023-07-13T15:45:15;30.40;54.10
44063;DHT22;29727;47.606;19.130;2023-07-13T15:47:42;30.30;54.30
44063;DHT22;29727;47.606;19.130;2023-07-13T15:50:21;30.30;53.70
44063;DHT22;29727;47.606;19.130;2023-07-13T15:52:52;30.30;52.20
44063;DHT22;29727;47.606;19.130;2023-07-13T15:55:18;30.30;53.30
44063;DHT22;29727;47.606;19.130;2023-07-13T15:57:50;30.30;53.00
44063;DHT22;29727;47.606;19.130;2023-07-13T16:00:22;30.20;53.80
44063;DHT22;29727;47.606;19.130;2023-07-13T16:02:49;30.20;54.10
44063;DHT22;29727;47.606;19.130;2023-07-13T16:05:16;30.30;53.40
44063;DHT22;29727;47.606;19.130;2023-07-13T16:07:46;30.30;53.40
44063;DHT22;29727;47.606;19.130;2023-07-13T16:10:36;30.20;54.20
44063;DHT22;29727;47.606;19.130;2023-07-13T16:13:15;30.20;54.00
44063;DHT22;29727;47.606;19.130;2023-07-13T16:15:42;30.10;54.10
44063;DHT22;29727;47.606;19.130;2023-07-13T16:18:10;30.10;54.60